Time;durP1;ratioP1;P1;durP2;ratioP2;P2;SDS_P1;SDS_P2;PMS_P1;PMS_P2;Temp;Humidity;BMP_temperature;BMP_pressure;BME280_temperature;BME280_humidity;BME280_pressure;Samples;Min_cycle;Max_cycle;Signal;HPM_P1;HPM_P2
2023/03/24 00:01:05;;;;;;;12.30;9.48;;;;;;;8.95;100.00;99815.19;5034252;28;20203;-42
2023/03/24 00:03:31;;;;;;;11.98;9.65;;;;;;;9.04;100.00;99825.44;5051643;28;20164;-45
2023/03/24 00:06:00;;;;;;;12.98;10.07;;;;;;;9.02;100.00;99801.44;5051789;28;20206;-45
2023/03/24 00:08:29;;;;;;;14.10;10.05;;;;;;;9.06;100.00;99802.19;5051846;28;20188;-44
2023/03/24 00:11:00;;;;;;;13.48;10.68;;;;;;;9.08;100.00;99809.19;5051696;28;20207;-50
2023/03/24 00:13:27;;;;;;;17.13;12.57;;;;;;;9.22;100.00;99799.63;5052605;28;20306;-45
2023/03/24 00:15:53;;;;;;;16.70;10.88;;;;;;;9.27;100.00;99785.09;5045992;28;20200;-49
2023/03/24 00:18:21;;;;;;;15.00;10.90;;;;;;;9.31;100.00;99790.28;5036974;28;20176;-49
2023/03/24 00:20:47;;;;;;;13.98;10.98;;;;;;;9.36;100.00;99785.56;5036363;28;20176;-49
2023/03/24 00:23:14;;;;;;;16.77;10.90;;;;;;;9.38;100.00;99773.88;5031952;28;20184;-49
2023/03/24 00:25:39;;;;;;;15.57;11.13;;;;;;;9.39;100.00;99788.09;5022412;28;20306;-49
2023/03/24 00:28:06;;;;;;;15.27;11.25;;;;;;;9.41;100.00;99773.69;5034259;28;20187;-48
2023/03/24 00:30:33;;;;;;;15.30;11.45;;;;;;;9.40;100.00;99766.63;5023550;28;20641;-48
2023/03/24 00:33:00;;;;;;;16.55;13.18;;;;;;;9.39;100.00;99772.06;5014319;28;20237;-49
2023/03/24 00:35:27;;;;;;;14.38;12.18;;;;;;;9.30;100.00;99773.38;5032987;28;20200;-49
2023/03/24 00:37:53;;;;;;;15.00;13.45;;;;;;;9.27;100.00;99762.81;5038476;28;20222;-48
2023/03/24 00:40:20;;;;;;;17.77;13.18;;;;;;;9.25;100.00;99770.09;5033636;28;20187;-47
2023/03/24 00:42:48;;;;;;;17.98;13.55;;;;;;;9.26;100.00;99753.09;5033395;28;20283;-48
2023/03/24 00:45:18;;;;;;;15.18;12.82;;;;;;;9.21;100.00;99752.47;5035399;28;20204;-49
2023/03/24 00:47:44;;;;;;;18.30;14.32;;;;;;;9.19;100.00;99749.00;5032718;28;20729;-50
2023/03/24 00:50:16;;;;;;;17.30;13.18;;;;;;;9.16;100.00;99738.44;5017839;28;20279;-48
2023/03/24 00:52:46;;;;;;;18.17;13.98;;;;;;;9.15;100.00;99739.41;5023810;28;20179;-44
2023/03/24 00:55:14;;;;;;;16.30;12.68;;;;;;;9.18;100.00;99734.78;5012268;28;20234;-45
2023/03/24 00:57:48;;;;;;;18.83;12.95;;;;;;;9.22;100.00;99730.97;5035734;28;20180;-43
2023/03/24 01:00:19;;;;;;;19.30;12.57;;;;;;;9.25;100.00;99725.50;5012959;28;20176;-47
2023/03/24 01:02:46;;;;;;;16.38;13.00;;;;;;;9.31;100.00;99723.44;5030922;28;20176;-46
2023/03/24 01:05:13;;;;;;;16.70;12.65;;;;;;;9.33;100.00;99722.44;5030800;28;20215;-45
2023/03/24 01:07:40;;;;;;;16.02;11.52;;;;;;;9.36;100.00;99711.59;5030406;28;20277;-48
2023/03/24 01:10:11;;;;;;;18.23;12.52;;;;;;;9.31;100.00;99710.94;5030634;28;20201;-45
2023/03/24 01:12:38;;;;;;;13.75;11.80;;;;;;;9.34;100.00;99707.28;5030395;28;20497;-51
2023/03/24 01:15:12;;;;;;;16.30;12.05;;;;;;;9.29;100.00;99699.47;5030441;28;20754;-46
2023/03/24 01:17:37;;;;;;;16.90;10.98;;;;;;;9.30;100.00;99690.53;5030566;28;20554;-47
2023/03/24 01:20:07;;;;;;;16.85;10.70;;;;;;;9.34;100.00;99693.91;5030061;28;20226;-45
2023/03/24 01:22:38;;;;;;;15.25;11.80;;;;;;;9.34;100.00;99672.53;5025414;28;20501;-45
2023/03/24 01:25:10;;;;;;;17.73;11.38;;;;;;;9.32;100.00;99690.44;5018815;28;20590;-48
2023/03/24 01:27:36;;;;;;;16.38;11.10;;;;;;;9.35;100.00;99671.56;5032808;28;20631;-49
2023/03/24 01:30:04;;;;;;;16.02;10.73;;;;;;;9.34;100.00;99673.38;5038194;28;20187;-42
2023/03/24 01:32:30;;;;;;;12.77;10.05;;;;;;;9.34;100.00;99675.19;5037263;28;20217;-48
2023/03/24 01:34:56;;;;;;;16.95;10.88;;;;;;;9.33;100.00;99663.63;5037134;28;20220;-48
2023/03/24 01:37:25;;;;;;;12.60;10.00;;;;;;;9.32;100.00;99666.41;5033099;28;20176;-44
2023/03/24 01:39:50;;;;;;;15.88;10.48;;;;;;;9.28;100.00;99663.88;5020617;28;20281;-47
2023/03/24 01:42:19;;;;;;;13.85;9.30;;;;;;;9.28;100.00;99655.84;5032677;28;20214;-47
2023/03/24 01:44:47;;;;;;;14.70;9.98;;;;;;;9.30;100.00;99655.78;5033288;28;20225;-45
2023/03/24 01:47:13;;;;;;;11.90;9.48;;;;;;;9.29;100.00;99648.69;5031328;28;20179;-48
2023/03/24 01:49:49;;;;;;;13.23;9.93;;;;;;;9.27;100.00;99650.56;5022665;28;20211;-46
2023/03/24 01:52:21;;;;;;;15.40;9.40;;;;;;;9.26;100.00;99640.84;5032396;28;20183;-47
2023/03/24 01:54:53;;;;;;;18.35;9.88;;;;;;;9.27;100.00;99643.44;4998767;28;20253;-47
2023/03/24 01:57:35;;;;;;;12.75;9.27;;;;;;;9.24;100.00;99632.03;4999712;28;20690;-47
2023/03/24 02:00:08;;;;;;;13.80;9.35;;;;;;;9.25;100.00;99623.94;5032014;28;20191;-46
2023/03/24 02:02:44;;;;;;;14.10;8.80;;;;;;;9.27;100.00;99623.84;5001669;28;20699;-48
2023/03/24 02:05:13;;;;;;;16.00;9.88;;;;;;;9.21;100.00;99624.19;5017835;28;20215;-45
2023/03/24 02:07:54;;;;;;;14.50;8.65;;;;;;;9.20;100.00;99611.75;5020544;28;20184;-46
2023/03/24 02:10:22;;;;;;;16.67;9.70;;;;;;;9.20;100.00;99614.44;5037357;28;20179;-47
2023/03/24 02:12:48;;;;;;;12.43;8.35;;;;;;;9.19;100.00;99607.38;5038090;28;20179;-45
2023/03/24 02:15:17;;;;;;;12.77;8.82;;;;;;;9.17;100.00;99599.41;5020280;28;20295;-46
2023/03/24 02:17:53;;;;;;;11.55;9.25;;;;;;;9.22;100.00;99597.34;5026490;28;20199;-47
2023/03/24 02:20:22;;;;;;;12.15;8.43;;;;;;;9.17;100.00;99594.06;5025288;28;20179;-46
2023/03/24 02:22:54;;;;;;;14.32;8.70;;;;;;;9.19;100.00;99588.66;5015763;28;20330;-46
2023/03/24 02:25:37;;;;;;;13.82;9.55;;;;;;;9.16;100.00;99583.47;5035286;28;20264;-46
2023/03/24 02:28:06;;;;;;;12.10;9.25;;;;;;;9.16;100.00;99570.97;5030094;28;20249;-46
2023/03/24 02:31:07;;;;;;;13.38;9.43;;;;;;;9.16;100.00;99575.44;5028292;28;20600;-47
2023/03/24 02:34:10;;;;;;;13.98;8.75;;;;;;;9.16;100.00;99567.44;5033130;28;20626;-47
2023/03/24 02:37:20;;;;;;;12.75;8.95;;;;;;;9.12;100.00;99557.84;5014204;28;20187;-45
2023/03/24 02:40:14;;;;;;;11.38;8.80;;;;;;;9.13;100.00;99551.56;5020918;28;20674;-48
2023/03/24 02:42:55;;;;;;;11.88;8.45;;;;;;;9.14;100.00;99553.28;5032466;28;20647;-46
2023/03/24 02:45:49;;;;;;;11.48;8.68;;;;;;;9.13;100.00;99543.56;5040604;28;20272;-48
2023/03/24 02:48:26;;;;;;;14.20;8.65;;;;;;;9.14;100.00;99545.25;5037639;28;20697;-46
2023/03/24 02:51:14;;;;;;;13.02;8.00;;;;;;;9.16;100.00;99541.59;5025173;28;20669;-47
2023/03/24 02:53:53;;;;;;;12.05;8.50;;;;;;;9.15;100.00;99526.50;5031089;28;20878;-45
2023/03/24 02:56:48;;;;;;;12.98;7.72;;;;;;;9.18;100.00;99518.31;5036142;28;20207;-48
2023/03/24 02:59:46;;;;;;;12.15;8.50;;;;;;;9.16;100.00;99509.53;5013698;28;20198;-46
2023/03/24 03:02:52;;;;;;;12.55;8.23;;;;;;;9.13;100.00;99498.97;5008206;28;20519;-46
2023/03/24 03:05:28;;;;;;;11.32;7.72;;;;;;;9.15;100.00;99506.94;5027165;28;20219;-47
2023/03/24 03:07:57;;;;;;;10.15;8.00;;;;;;;9.13;100.00;99498.97;5016250;28;20188;-47
2023/03/24 03:10:29;;;;;;;13.00;8.88;;;;;;;9.14;100.00;99497.16;5023258;28;20186;-46
2023/03/24 03:13:00;;;;;;;10.45;8.80;;;;;;;9.12;100.00;99489.25;5015823;28;20620;-48
2023/03/24 03:15:37;;;;;;;12.57;8.77;;;;;;;9.10;100.00;99476.94;5032349;28;20200;-46
2023/03/24 03:18:17;;;;;;;11.45;8.38;;;;;;;9.10;100.00;99474.25;5019060;28;20186;-47
2023/03/24 03:20:51;;;;;;;12.50;9.10;;;;;;;9.06;100.00;99470.88;5036140;28;20184;-46
2023/03/24 03:23:36;;;;;;;9.55;8.20;;;;;;;9.08;100.00;99469.84;5021578;28;20232;-46
2023/03/24 03:26:06;;;;;;;12.05;8.75;;;;;;;9.10;100.00;99463.56;5036830;28;20224;-49
2023/03/24 03:28:37;;;;;;;9.93;8.95;;;;;;;9.09;100.00;99457.34;5004718;28;20560;-49
2023/03/24 03:31:07;;;;;;;13.18;9.65;;;;;;;9.11;100.00;99451.91;5035933;28;20176;-50
2023/03/24 03:33:39;;;;;;;10.60;9.50;;;;;;;9.05;100.00;99445.09;5036474;28;20178;-45
2023/03/24 03:36:21;;;;;;;11.05;9.23;;;;;;;9.05;100.00;99443.31;5045431;28;20206;-45
2023/03/24 03:39:14;;;;;;;10.60;9.50;;;;;;;9.06;100.00;99431.66;5044237;28;20180;-43
2023/03/24 03:41:42;;;;;;;12.15;9.30;;;;;;;9.05;100.00;99421.03;5028566;28;20399;-44
2023/03/24 03:44:08;;;;;;;13.95;9.90;;;;;;;9.06;100.00;99428.13;5025816;28;20257;-42
2023/03/24 03:46:35;;;;;;;10.70;9.70;;;;;;;9.08;100.00;99424.41;5028899;28;20183;-43
2023/03/24 03:49:05;;;;;;;11.70;10.50;;;;;;;9.11;100.00;99418.03;5013900;28;20381;-44
2023/03/24 03:51:33;;;;;;;11.88;10.68;;;;;;;9.11;100.00;99414.50;5011717;28;20510;-45
2023/03/24 03:54:05;;;;;;;11.73;10.40;;;;;;;9.03;100.00;99399.78;5024631;28;20184;-44
2023/03/24 03:56:34;;;;;;;11.95;10.82;;;;;;;9.05;100.00;99397.88;5014610;28;20261;-43
2023/03/24 03:59:25;;;;;;;13.15;11.35;;;;;;;9.06;100.00;99396.06;5011709;28;20773;-43
2023/03/24 04:01:52;;;;;;;13.98;11.00;;;;;;;9.04;100.00;99388.13;4999362;28;20180;-42
2023/03/24 04:04:47;;;;;;;14.90;11.13;;;;;;;9.06;100.00;99377.38;5007368;28;20219;-44
2023/03/24 04:07:42;;;;;;;12.77;10.77;;;;;;;9.04;100.00;99368.56;5025884;28;20196;-44
2023/03/24 04:10:57;;;;;;;11.32;10.18;;;;;;;9.05;100.00;99368.50;5034813;28;20190;-43
2023/03/24 04:13:47;;;;;;;11.25;10.20;;;;;;;9.03;100.00;99380.19;5001435;28;20650;-44
2023/03/24 04:16:55;;;;;;;12.98;9.95;;;;;;;9.03;100.00;99380.19;5043837;28;20191;-40
2023/03/24 04:19:35;;;;;;;11.07;9.98;;;;;;;9.04;100.00;99374.78;5019396;28;20168;-41
2023/03/24 04:22:24;;;;;;;10.35;9.32;;;;;;;9.05;100.00;99363.16;5031482;28;20529;-40
2023/03/24 04:25:24;;;;;;;11.30;9.52;;;;;;;9.05;100.00;99354.25;5024606;28;20257;-41
2023/03/24 04:28:09;;;;;;;10.38;8.82;;;;;;;9.10;100.00;99357.56;5031376;28;20221;-42
2023/03/24 04:30:49;;;;;;;11.30;9.90;;;;;;;9.10;100.00;99351.34;5031036;28;20187;-42
2023/03/24 04:33:21;;;;;;;10.20;9.30;;;;;;;9.12;100.00;99347.66;5006066;28;20211;-43
2023/03/24 04:36:05;;;;;;;10.75;8.65;;;;;;;9.11;100.00;99343.22;5040811;28;20226;-43
2023/03/24 04:38:44;;;;;;;9.65;8.65;;;;;;;9.13;100.00;99335.13;5020015;28;20258;-43
2023/03/24 04:41:25;;;;;;;10.07;9.05;;;;;;;9.20;100.00;99340.03;5025036;28;20222;-45
2023/03/24 04:44:02;;;;;;;9.70;8.77;;;;;;;9.16;100.00;99337.63;5019139;28;20168;-45
2023/03/24 04:46:32;;;;;;;9.65;8.65;;;;;;;9.21;100.00;99320.41;5015122;28;20663;-46
2023/03/24 04:49:09;;;;;;;8.85;8.05;;;;;;;9.23;100.00;99325.66;5019436;28;20179;-44
2023/03/24 04:51:37;;;;;;;9.32;7.93;;;;;;;9.24;100.00;99316.69;5016817;28;20187;-45
2023/03/24 04:54:06;;;;;;;9.82;8.30;;;;;;;9.22;100.00;99315.91;5023335;28;20691;-47
2023/03/24 04:56:47;;;;;;;8.98;8.00;;;;;;;9.25;100.00;99315.75;5013320;28;20230;-45
2023/03/24 04:59:35;;;;;;;8.25;7.55;;;;;;;9.28;100.00;99302.19;5017677;28;20199;-45
2023/03/24 05:02:04;;;;;;;9.73;7.50;;;;;;;9.30;100.00;99300.31;5017216;28;20228;-45
2023/03/24 05:04:36;;;;;;;10.68;8.20;;;;;;;9.36;100.00;99296.41;5035666;28;20226;-48
2023/03/24 05:07:17;;;;;;;9.63;8.30;;;;;;;9.32;100.00;99298.41;5014028;28;20175;-44
2023/03/24 05:09:46;;;;;;;11.00;8.18;;;;;;;9.32;100.00;99286.84;5015520;28;20650;-45
2023/03/24 05:12:12;;;;;;;10.80;8.80;;;;;;;9.33;100.00;99283.22;5021672;28;20168;-44
2023/03/24 05:14:58;;;;;;;9.43;8.52;;;;;;;9.34;100.00;99283.16;5032315;28;20196;-46
2023/03/24 05:17:24;;;;;;;10.13;9.23;;;;;;;9.33;100.00;99269.84;5014179;28;20199;-42
2023/03/24 05:19:50;;;;;;;10.27;9.23;;;;;;;9.36;100.00;99267.88;5015626;28;20659;-43
2023/03/24 05:22:15;;;;;;;9.77;8.85;;;;;;;9.39;100.00;99274.84;5032091;28;20218;-45
2023/03/24 05:24:40;;;;;;;10.32;9.35;;;;;;;9.36;100.00;99265.22;5033074;28;20211;-41
2023/03/24 05:27:06;;;;;;;9.98;8.73;;;;;;;9.41;100.00;99267.59;5013806;28;20261;-41
2023/03/24 05:29:32;;;;;;;9.82;8.82;;;;;;;9.39;100.00;99267.69;5013205;28;20417;-42
2023/03/24 05:31:58;;;;;;;9.48;8.57;;;;;;;9.42;100.00;99267.53;4998997;28;20184;-40
2023/03/24 05:34:24;;;;;;;10.75;8.73;;;;;;;9.44;100.00;99264.75;5012471;28;20237;-44
2023/03/24 05:37:13;;;;;;;10.40;8.60;;;;;;;9.45;100.00;99264.66;5016020;28;20274;-43
2023/03/24 05:39:39;;;;;;;11.18;8.85;;;;;;;9.46;100.00;99266.38;5031085;28;20180;-44
2023/03/24 05:42:09;;;;;;;9.13;8.25;;;;;;;9.49;100.00;99258.19;5015170;28;20262;-43
2023/03/24 05:44:35;;;;;;;9.15;8.25;;;;;;;9.52;100.00;99265.16;5031810;28;20636;-43
2023/03/24 05:47:06;;;;;;;8.15;7.38;;;;;;;9.52;100.00;99258.97;5012844;28;20245;-42
2023/03/24 05:49:32;;;;;;;10.18;8.93;;;;;;;9.53;100.00;99261.53;5016390;28;20175;-44
2023/03/24 05:51:59;;;;;;;9.95;8.45;;;;;;;9.57;100.00;99267.56;5011523;28;20183;-43
2023/03/24 05:54:25;;;;;;;8.95;8.00;;;;;;;9.59;100.00;99249.63;5032009;28;20187;-48
2023/03/24 05:56:57;;;;;;;7.82;7.13;;;;;;;9.62;100.00;99257.44;5028356;28;20171;-44
2023/03/24 05:59:30;;;;;;;7.80;7.10;;;;;;;9.64;100.00;99251.06;5011875;28;20172;-45
2023/03/24 06:02:31;;;;;;;8.30;7.15;;;;;;;9.62;100.00;99258.31;4987915;28;20620;-49
2023/03/24 06:05:07;;;;;;;8.15;7.25;;;;;;;9.69;100.00;99240.09;5004780;28;20363;-43
2023/03/24 06:07:33;;;;;;;7.43;6.72;;;;;;;9.68;100.00;99247.25;5027828;28;20172;-43
2023/03/24 06:10:02;;;;;;;9.07;6.60;;;;;;;9.69;100.00;99234.75;5027713;28;20191;-45
2023/03/24 06:12:32;;;;;;;7.57;6.82;;;;;;;9.76;100.00;99240.59;5011585;28;20194;-46
2023/03/24 06:15:02;;;;;;;8.77;6.65;;;;;;;9.75;100.00;99237.06;5029597;28;20860;-42
2023/03/24 06:17:29;;;;;;;7.13;6.40;;;;;;;9.78;100.00;99239.53;5011728;28;20187;-45
2023/03/24 06:20:01;;;;;;;8.07;6.10;;;;;;;9.84;100.00;99239.16;5012270;28;20179;-44
2023/03/24 06:22:57;;;;;;;6.55;6.05;;;;;;;9.83;100.00;99233.91;5011976;28;20213;-45
2023/03/24 06:25:27;;;;;;;7.90;6.00;;;;;;;9.84;100.00;99223.13;5011683;28;20698;-44
2023/03/24 06:28:11;;;;;;;9.50;6.53;;;;;;;9.84;100.00;99217.78;5012002;28;20665;-44
2023/03/24 06:30:37;;;;;;;6.65;6.10;;;;;;;9.88;100.00;99215.75;5011698;28;20266;-47
2023/03/24 06:33:04;;;;;;;8.13;7.40;;;;;;;9.89;100.00;99214.81;5027104;28;20233;-49
2023/03/24 06:35:30;;;;;;;7.70;7.00;;;;;;;9.89;100.00;99221.00;5032780;28;20199;-48
2023/03/24 06:38:09;;;;;;;8.40;7.35;;;;;;;9.92;100.00;99209.25;5035008;28;20179;-47
2023/03/24 06:40:36;;;;;;;8.00;7.30;;;;;;;9.99;100.00;99220.44;5025921;28;20210;-49
2023/03/24 06:43:02;;;;;;;8.38;7.65;;;;;;;9.99;100.00;99197.25;5016284;28;20183;-49
2023/03/24 06:45:28;;;;;;;7.90;7.20;;;;;;;10.04;100.00;99213.00;5036496;28;20294;-49
2023/03/24 06:47:57;;;;;;;7.65;6.95;;;;;;;10.05;100.00;99209.38;5001716;28;20298;-49
2023/03/24 06:50:31;;;;;;;8.43;7.50;;;;;;;10.11;100.00;99225.03;5031966;28;20173;-49
2023/03/24 06:52:59;;;;;;;6.82;6.20;;;;;;;10.11;100.00;99217.03;5023627;28;20207;-49
2023/03/24 06:55:27;;;;;;;7.35;6.75;;;;;;;10.12;100.00;99226.75;5007038;28;20199;-48
2023/03/24 06:57:53;;;;;;;7.22;6.63;;;;;;;10.15;100.00;99234.59;5024611;28;20232;-50
2023/03/24 07:00:33;;;;;;;7.13;6.57;;;;;;;10.17;100.00;99234.53;5013677;28;20226;-48
2023/03/24 07:03:22;;;;;;;6.72;6.07;;;;;;;10.14;100.00;99251.59;5029240;28;20278;-47
2023/03/24 07:06:08;;;;;;;9.73;6.45;;;;;;;10.16;100.00;99247.03;5035257;28;20222;-49
2023/03/24 07:08:35;;;;;;;6.78;6.22;;;;;;;10.06;100.00;99275.31;5017062;28;20184;-46
2023/03/24 07:11:02;;;;;;;6.90;6.20;;;;;;;10.07;100.00;99296.63;5021118;28;20547;-47
2023/03/24 07:13:29;;;;;;;5.55;4.13;;;;;;;9.93;100.00;99304.63;5015316;28;20646;-47
2023/03/24 07:16:02;;;;;;;5.22;2.08;;;;;;;9.67;100.00;99301.69;5016172;28;20737;-47
2023/03/24 07:18:28;;;;;;;6.50;1.75;;;;;;;9.52;100.00;99315.09;5015064;28;20236;-47
2023/03/24 07:20:58;;;;;;;4.53;1.60;;;;;;;9.44;100.00;99319.06;5016908;28;20187;-48
2023/03/24 07:23:26;;;;;;;6.75;1.92;;;;;;;9.34;100.00;99315.22;5026379;28;20183;-48
2023/03/24 07:26:12;;;;;;;8.90;2.05;;;;;;;9.29;100.00;99314.59;5027658;28;20314;-47
2023/03/24 07:28:47;;;;;;;5.45;1.52;;;;;;;9.32;100.00;99322.47;5036250;28;20211;-47
2023/03/24 07:31:23;;;;;;;5.57;1.83;;;;;;;9.32;100.00;99329.63;5004676;28;20658;-44
2023/03/24 07:33:55;;;;;;;9.60;1.70;;;;;;;9.42;100.00;99322.78;5015666;28;20219;-48
2023/03/24 07:36:21;;;;;;;6.35;1.55;;;;;;;9.56;100.00;99317.50;5022252;28;20192;-48
2023/03/24 07:38:46;;;;;;;7.70;1.73;;;;;;;9.63;100.00;99304.63;5037879;28;20180;-47
2023/03/24 07:41:21;;;;;;;8.27;2.03;;;;;;;9.97;100.00;99332.94;5028621;28;20175;-47
2023/03/24 07:43:51;;;;;;;6.68;1.80;;;;;;;9.66;100.00;99321.38;5022088;28;20986;-46
2023/03/24 07:46:23;;;;;;;9.25;2.50;;;;;;;9.59;100.00;99327.16;5020006;28;20196;-48
2023/03/24 07:48:49;;;;;;;6.47;2.20;;;;;;;10.06;100.00;99318.13;5035239;28;20187;-47
2023/03/24 07:51:18;;;;;;;6.47;1.75;;;;;;;10.21;100.00;99317.22;5019930;28;20248;-48
2023/03/24 07:53:51;;;;;;;11.98;2.15;;;;;;;9.90;100.00;99313.72;5012917;28;20190;-47
2023/03/24 07:56:27;;;;;;;9.40;2.22;;;;;;;10.34;100.00;99309.28;5016405;28;20212;-47
2023/03/24 07:58:56;;;;;;;9.73;2.17;;;;;;;10.43;100.00;99315.88;5024500;28;20183;-47
2023/03/24 08:01:28;;;;;;;8.85;2.33;;;;;;;10.79;100.00;99317.25;5022774;28;20183;-47
2023/03/24 08:03:57;;;;;;;11.45;2.40;;;;;;;10.96;100.00;99322.38;5011821;28;20179;-45
2023/03/24 08:06:42;;;;;;;12.27;3.20;;;;;;;10.54;100.00;99310.75;5033519;28;20584;-45
2023/03/24 08:09:08;;;;;;;11.13;2.53;;;;;;;10.46;100.00;99329.97;5034138;28;20182;-46
2023/03/24 08:11:34;;;;;;;11.05;2.70;;;;;;;10.44;100.00;99326.50;5033240;28;20188;-46
2023/03/24 08:14:00;;;;;;;13.00;3.40;;;;;;;10.51;100.00;99332.34;5031153;28;20171;-45
2023/03/24 08:16:26;;;;;;;12.32;3.47;;;;;;;10.83;100.00;99326.81;5033944;28;20318;-46
2023/03/24 08:18:51;;;;;;;13.80;2.95;;;;;;;10.91;100.00;99335.19;5035608;28;20539;-45
2023/03/24 08:21:17;;;;;;;16.88;3.00;;;;;;;10.81;100.00;99340.28;5031498;28;20168;-46
2023/03/24 08:23:43;;;;;;;9.80;2.10;;;;;;;10.76;100.00;99339.72;5033896;28;20191;-44
2023/03/24 08:26:09;;;;;;;13.50;2.92;;;;;;;10.55;100.00;99339.25;5034245;28;20231;-47
2023/03/24 08:28:36;;;;;;;12.82;3.15;;;;;;;10.20;100.00;99357.44;5034115;28;20513;-49
2023/03/24 08:31:03;;;;;;;10.23;3.00;;;;;;;10.33;100.00;99355.78;5035535;28;20619;-48
2023/03/24 08:33:28;;;;;;;10.48;2.97;;;;;;;10.19;100.00;99363.72;5030997;28;20250;-47
2023/03/24 08:35:59;;;;;;;15.85;3.05;;;;;;;10.29;100.00;99365.78;5036678;28;20669;-44
2023/03/24 08:38:29;;;;;;;10.40;2.88;;;;;;;10.73;100.00;99358.66;5038125;28;20198;-46
2023/03/24 08:41:05;;;;;;;13.50;3.15;;;;;;;10.79;100.00;99368.13;5032910;28;20172;-45
2023/03/24 08:43:32;;;;;;;17.65;2.92;;;;;;;10.40;100.00;99370.50;5027294;28;20241;-46
2023/03/24 08:45:59;;;;;;;14.18;2.90;;;;;;;10.12;100.00;99376.63;5036054;28;20694;-46
2023/03/24 08:48:26;;;;;;;18.58;3.28;;;;;;;9.92;100.00;99371.59;5030964;28;20188;-46
2023/03/24 08:50:52;;;;;;;11.85;3.38;;;;;;;9.96;100.00;99399.91;5031459;28;20661;-46
2023/03/24 08:53:18;;;;;;;15.35;3.60;;;;;;;9.77;100.00;99406.31;5026562;28;20168;-46
2023/03/24 08:55:44;;;;;;;9.65;3.00;;;;;;;9.88;100.00;99419.06;5026390;28;20191;-46
2023/03/24 08:58:20;;;;;;;12.80;2.95;;;;;;;9.97;100.00;99420.34;5029674;28;20560;-46
2023/03/24 09:00:47;;;;;;;11.80;2.67;;;;;;;9.93;100.00;99417.00;5010329;28;20670;-47
2023/03/24 09:03:17;;;;;;;10.80;2.42;;;;;;;9.89;100.00;99418.13;5035546;28;20172;-44
2023/03/24 09:05:45;;;;;;;16.70;3.35;;;;;;;9.88;100.00;99443.13;5050374;28;20682;-43
2023/03/24 09:08:12;;;;;;;16.45;3.55;;;;;;;9.84;100.00;99441.63;5050722;28;20246;-43
2023/03/24 09:10:39;;;;;;;15.20;2.80;;;;;;;9.77;100.00;99430.38;5050560;28;20201;-43
2023/03/24 09:13:05;;;;;;;12.55;2.97;;;;;;;9.78;100.00;99452.66;5049192;28;20563;-45
2023/03/24 09:15:32;;;;;;;11.60;3.10;;;;;;;9.70;100.00;99442.38;5048966;28;20274;-48
2023/03/24 09:17:58;;;;;;;12.68;2.60;;;;;;;9.66;100.00;99440.81;5050478;28;20306;-45
2023/03/24 09:20:23;;;;;;;12.45;2.53;;;;;;;9.60;100.00;99460.78;5050079;28;20252;-47
2023/03/24 09:22:49;;;;;;;9.93;3.15;;;;;;;9.53;100.00;99458.50;5050056;28;20160;-44
2023/03/24 09:25:17;;;;;;;13.68;3.65;;;;;;;9.61;100.00;99464.31;5049918;28;20276;-42
2023/03/24 09:27:42;;;;;;;8.48;2.90;;;;;;;9.62;100.00;99474.91;5032205;28;20167;-44
2023/03/24 09:30:11;;;;;;;14.90;3.20;;;;;;;9.61;100.00;99475.84;5049898;28;20259;-48
2023/03/24 09:32:37;;;;;;;9.57;2.63;;;;;;;9.62;100.00;99474.03;5038693;28;20636;-45
2023/03/24 09:35:04;;;;;;;12.82;2.55;;;;;;;9.77;100.00;99477.66;5039079;28;20278;-45
2023/03/24 09:37:33;;;;;;;12.45;3.58;;;;;;;9.84;100.00;99476.38;5033114;28;20200;-47
2023/03/24 09:40:00;;;;;;;9.68;2.50;;;;;;;9.79;100.00;99476.63;5032370;28;20180;-45
2023/03/24 09:42:29;;;;;;;13.80;3.05;;;;;;;9.89;100.00;99483.19;5030075;28;20198;-49
2023/03/24 09:44:57;;;;;;;13.88;3.47;;;;;;;9.92;100.00;99490.16;5038738;28;20235;-46
2023/03/24 09:47:32;;;;;;;14.07;2.90;;;;;;;10.04;100.00;99485.94;5025548;28;20176;-48
2023/03/24 09:50:02;;;;;;;12.95;2.50;;;;;;;10.29;100.00;99499.63;5026623;28;20183;-48
2023/03/24 09:52:43;;;;;;;11.45;3.25;;;;;;;10.19;100.00;99501.13;5033829;28;20184;-47
2023/03/24 09:55:20;;;;;;;8.25;2.28;;;;;;;10.21;100.00;99485.84;5029918;28;20187;-48
2023/03/24 09:57:48;;;;;;;12.05;2.83;;;;;;;10.00;100.00;99493.28;5039192;28;20264;-47
2023/03/24 10:00:21;;;;;;;12.48;2.60;;;;;;;10.04;100.00;99497.50;5030880;28;20172;-48
2023/03/24 10:02:48;;;;;;;10.23;3.28;;;;;;;9.93;100.00;99518.66;5029055;28;20540;-47
2023/03/24 10:05:18;;;;;;;12.57;2.85;;;;;;;9.89;100.00;99498.38;5033698;28;20226;-48
2023/03/24 10:07:55;;;;;;;9.77;2.40;;;;;;;9.96;100.00;99501.56;5034540;28;20222;-49
2023/03/24 10:10:32;;;;;;;12.50;2.83;;;;;;;9.84;100.00;99522.72;5031231;28;20622;-45
2023/03/24 10:13:17;;;;;;;13.45;3.00;;;;;;;10.02;100.00;99503.91;5032077;28;20217;-46
2023/03/24 10:15:50;;;;;;;10.45;2.63;;;;;;;10.08;99.95;99514.25;5029165;28;20204;-48
2023/03/24 10:18:19;;;;;;;10.93;2.65;;;;;;;10.19;99.02;99498.44;5038165;28;20185;-46
2023/03/24 10:20:55;;;;;;;9.07;2.47;;;;;;;10.08;97.95;99508.91;5030019;28;20184;-44
2023/03/24 10:23:50;;;;;;;14.30;3.20;;;;;;;10.28;98.08;99507.75;5027705;28;20255;-46
2023/03/24 10:26:38;;;;;;;11.43;2.40;;;;;;;10.33;97.48;99520.91;5033575;28;20215;-48
2023/03/24 10:29:24;;;;;;;10.15;2.53;;;;;;;10.24;97.74;99520.44;5031352;28;20759;-48
2023/03/24 10:32:08;;;;;;;12.15;2.95;;;;;;;10.30;98.37;99540.69;5030697;28;20183;-44
2023/03/24 10:34:36;;;;;;;13.85;2.60;;;;;;;10.23;98.63;99537.47;5031721;28;20198;-46
2023/03/24 10:37:03;;;;;;;12.25;2.33;;;;;;;10.24;98.61;99533.81;5039158;28;20206;-45
2023/03/24 10:39:30;;;;;;;13.15;2.92;;;;;;;10.26;99.17;99539.94;5043688;28;20172;-47
2023/03/24 10:41:58;;;;;;;11.70;2.90;;;;;;;10.37;99.33;99542.03;5033616;28;20879;-46
2023/03/24 10:44:24;;;;;;;13.48;2.50;;;;;;;10.38;99.29;99545.56;5035590;28;20211;-46
2023/03/24 10:46:53;;;;;;;11.98;2.40;;;;;;;10.55;98.87;99553.50;5032929;28;20195;-46
2023/03/24 10:49:21;;;;;;;12.60;3.00;;;;;;;10.61;98.02;99542.41;5035208;28;20175;-45
2023/03/24 10:51:52;;;;;;;11.05;2.65;;;;;;;10.65;97.52;99546.66;5032039;28;20598;-45
2023/03/24 10:54:25;;;;;;;11.95;2.80;;;;;;;11.00;97.09;99550.81;5038627;28;20188;-46
2023/03/24 10:56:57;;;;;;;12.25;2.60;;;;;;;11.13;96.12;99543.78;5036943;28;20744;-45
2023/03/24 10:59:27;;;;;;;9.43;2.63;;;;;;;11.18;95.68;99527.44;5033799;28;20234;-47
2023/03/24 11:02:14;;;;;;;9.85;2.92;;;;;;;11.45;94.51;99546.28;5033042;28;20172;-41
2023/03/24 11:05:04;;;;;;;12.10;2.78;;;;;;;11.37;93.76;99529.81;5032724;28;20203;-44
2023/03/24 11:07:38;;;;;;;14.68;2.55;;;;;;;11.17;92.37;99545.31;5032805;28;20188;-44
2023/03/24 11:10:09;;;;;;;8.98;2.22;;;;;;;11.03;91.66;99554.19;5031428;28;20269;-49
2023/03/24 11:12:38;;;;;;;8.00;2.22;;;;;;;11.03;90.53;99548.84;5032841;28;20250;-44
2023/03/24 11:15:20;;;;;;;17.25;3.53;;;;;;;10.89;90.20;99559.53;5032619;28;20195;-48
2023/03/24 11:17:55;;;;;;;10.57;2.63;;;;;;;10.67;89.41;99558.13;5032476;28;20187;-42
2023/03/24 11:20:38;;;;;;;13.00;2.53;;;;;;;10.21;89.25;99560.78;5033247;28;20160;-44
2023/03/24 11:23:19;;;;;;;10.18;2.50;;;;;;;10.77;88.97;99568.31;5032425;28;20242;-42
2023/03/24 11:26:07;;;;;;;10.00;2.50;;;;;;;10.79;88.61;99574.44;5045333;28;20234;-45
2023/03/24 11:28:45;;;;;;;10.85;2.78;;;;;;;10.97;88.06;99551.88;5037326;28;20257;-46
2023/03/24 11:31:23;;;;;;;12.85;3.20;;;;;;;11.18;86.82;99562.28;5032569;28;20168;-44
2023/03/24 11:34:18;;;;;;;13.23;2.70;;;;;;;11.15;85.39;99555.28;5032818;28;20183;-41
2023/03/24 11:37:15;;;;;;;12.45;2.83;;;;;;;11.59;84.35;99543.63;5032486;28;20165;-44
2023/03/24 11:39:40;;;;;;;14.93;3.10;;;;;;;11.97;83.89;99555.56;5012167;28;20558;-43
2023/03/24 11:42:17;;;;;;;11.10;2.90;;;;;;;11.99;82.90;99540.25;5015980;28;20277;-44
2023/03/24 11:44:51;;;;;;;11.50;2.75;;;;;;;12.18;82.17;99537.19;5032454;28;20206;-43
2023/03/24 11:47:39;;;;;;;15.88;3.28;;;;;;;12.12;81.29;99536.66;5032054;28;20180;-44
2023/03/24 11:50:10;;;;;;;10.57;2.75;;;;;;;12.29;80.41;99527.47;5047740;28;20176;-43
2023/03/24 11:52:51;;;;;;;11.60;2.60;;;;;;;12.61;80.35;99543.25;5051789;28;20195;-43